createdAt,value
2023-02-28T00:00:33.433Z,3.60
2023-02-28T00:02:59.997Z,3.81
2023-02-28T00:05:28.445Z,3.44
2023-02-28T00:07:55.977Z,3.35
2023-02-28T00:10:28.813Z,3.88
2023-02-28T00:12:57.824Z,3.38
2023-02-28T00:15:25.016Z,3.21
2023-02-28T00:17:51.825Z,3.77
2023-02-28T00:20:18.353Z,3.81
2023-02-28T00:22:48.231Z,3.91
2023-02-28T00:25:17.561Z,3.91
2023-02-28T00:27:44.000Z,3.35
2023-02-28T00:30:16.072Z,3.36
2023-02-28T00:32:42.858Z,3.75
2023-02-28T00:35:10.849Z,3.76
2023-02-28T00:37:37.829Z,3.72
2023-02-28T00:40:07.839Z,3.65
2023-02-28T00:42:35.258Z,3.68
2023-02-28T00:45:02.137Z,3.67
2023-02-28T00:47:28.869Z,3.67
2023-02-28T00:49:55.513Z,3.59
2023-02-28T00:52:22.535Z,3.57
2023-02-28T00:54:48.992Z,3.67
2023-02-28T00:57:15.437Z,3.63
2023-02-28T00:59:41.997Z,3.61
2023-02-28T01:02:08.418Z,3.40
2023-02-28T01:04:34.900Z,3.67
2023-02-28T01:07:01.374Z,3.63
2023-02-28T01:09:27.823Z,3.50
2023-02-28T01:11:54.230Z,3.63
2023-02-28T01:14:20.680Z,3.38
2023-02-28T01:16:47.372Z,3.00
2023-02-28T01:19:13.973Z,3.55
2023-02-28T01:21:40.403Z,3.67
2023-02-28T01:24:07.947Z,3.73
2023-02-28T01:26:34.390Z,3.02
2023-02-28T01:29:00.801Z,2.89
2023-02-28T01:31:27.906Z,3.33
2023-02-28T01:33:54.717Z,3.61
2023-02-28T01:36:23.539Z,3.72
2023-02-28T01:38:50.328Z,3.79
2023-02-28T01:41:29.679Z,3.61
2023-02-28T01:44:04.105Z,3.72
2023-02-28T01:46:35.865Z,3.92
2023-02-28T01:49:17.485Z,3.85
2023-02-28T01:51:51.821Z,3.08
2023-02-28T01:54:24.987Z,3.44
2023-02-28T01:56:57.964Z,3.61
2023-02-28T01:59:39.287Z,3.04
2023-02-28T02:02:05.883Z,3.33
2023-02-28T02:04:41.094Z,2.87
2023-02-28T02:07:08.102Z,3.37
2023-02-28T02:09:34.505Z,3.68
2023-02-28T02:12:16.609Z,3.72
2023-02-28T02:14:58.753Z,3.82
2023-02-28T02:17:37.536Z,3.56
2023-02-28T02:20:25.716Z,3.50
2023-02-28T02:23:20.063Z,3.45
2023-02-28T02:25:55.704Z,2.78
2023-02-28T02:28:48.741Z,2.42
2023-02-28T02:31:43.286Z,2.39
2023-02-28T02:34:18.901Z,2.98
2023-02-28T02:36:53.278Z,2.98
2023-02-28T02:39:41.525Z,3.53
2023-02-28T02:42:17.428Z,3.59
2023-02-28T02:44:50.117Z,3.64
2023-02-28T02:47:20.768Z,3.62
2023-02-28T02:49:52.532Z,3.63
2023-02-28T02:52:22.944Z,3.74
2023-02-28T02:54:56.196Z,3.52
2023-02-28T02:57:36.287Z,3.33
2023-02-28T03:00:09.425Z,3.48
2023-02-28T03:02:39.230Z,3.63
2023-02-28T03:05:14.260Z,3.23
2023-02-28T03:07:40.830Z,3.41
2023-02-28T03:10:31.772Z,3.01
2023-02-28T03:13:33.504Z,3.49
2023-02-28T03:16:36.157Z,3.24
2023-02-28T03:19:25.611Z,3.03
2023-02-28T03:22:10.495Z,3.19
2023-02-28T03:24:52.544Z,2.87
2023-02-28T03:28:02.017Z,3.35
2023-02-28T03:30:40.506Z,3.29
2023-02-28T03:33:24.120Z,3.67
2023-02-28T03:35:58.158Z,3.81
2023-02-28T03:38:37.724Z,3.62
2023-02-28T03:41:16.913Z,3.16
2023-02-28T03:43:51.116Z,3.90
2023-02-28T03:46:22.208Z,3.72
2023-02-28T03:49:17.817Z,4.06
2023-02-28T03:51:47.210Z,4.22
2023-02-28T03:54:22.997Z,4.15
2023-02-28T03:57:03.797Z,4.19
2023-02-28T03:59:35.874Z,4.15
2023-02-28T04:02:02.639Z,4.13
2023-02-28T04:04:29.504Z,4.24
2023-02-28T04:07:04.373Z,3.60
2023-02-28T04:09:30.858Z,3.36
2023-02-28T04:11:57.480Z,3.29
2023-02-28T04:14:24.401Z,4.01
2023-02-28T04:16:51.954Z,4.35
2023-02-28T04:19:18.959Z,4.46
2023-02-28T04:21:50.978Z,4.16
2023-02-28T04:24:23.947Z,4.45
2023-02-28T04:26:52.998Z,3.96
2023-02-28T04:29:33.210Z,4.27
2023-02-28T04:32:01.078Z,4.43
2023-02-28T04:34:29.128Z,4.43
2023-02-28T04:37:11.995Z,4.33
2023-02-28T04:39:39.661Z,4.20
2023-02-28T04:42:06.754Z,2.82
2023-02-28T04:44:33.191Z,3.39
2023-02-28T04:46:59.759Z,2.55
2023-02-28T04:49:26.465Z,3.63
2023-02-28T04:51:53.843Z,3.64
2023-02-28T04:54:20.630Z,3.99
2023-02-28T04:56:47.265Z,4.20
2023-02-28T04:59:13.661Z,3.53
2023-02-28T05:01:40.038Z,4.03
2023-02-28T05:04:06.910Z,3.80
2023-02-28T05:06:34.384Z,4.11
2023-02-28T05:09:01.100Z,3.53
2023-02-28T05:11:35.864Z,3.87
2023-02-28T05:14:04.785Z,3.47
2023-02-28T05:16:32.102Z,3.76
2023-02-28T05:18:58.904Z,3.75
2023-02-28T05:21:25.469Z,3.83
2023-02-28T05:23:52.536Z,3.81
2023-02-28T05:26:19.628Z,3.78
2023-02-28T05:28:46.079Z,4.00
2023-02-28T05:31:12.904Z,3.43
2023-02-28T05:33:40.499Z,2.79
2023-02-28T05:36:07.539Z,3.88
2023-02-28T05:38:34.077Z,4.19
2023-02-28T05:41:00.540Z,3.36
2023-02-28T05:43:26.982Z,3.73
2023-02-28T05:45:53.448Z,3.53
2023-02-28T05:48:19.900Z,2.90
2023-02-28T05:50:47.065Z,1.79
2023-02-28T05:53:13.821Z,2.24
2023-02-28T05:55:42.094Z,1.98
2023-02-28T05:58:08.536Z,2.26
2023-02-28T06:00:34.945Z,1.74
2023-02-28T06:03:03.066Z,2.12
2023-02-28T06:05:29.689Z,1.80
2023-02-28T06:07:56.138Z,1.48
2023-02-28T06:10:22.600Z,1.59
2023-02-28T06:12:49.016Z,2.39
2023-02-28T06:15:16.683Z,1.86
2023-02-28T06:17:44.782Z,1.63
2023-02-28T06:20:16.023Z,1.14
2023-02-28T06:22:42.430Z,1.27
2023-02-28T06:25:10.646Z,1.54
2023-02-28T06:27:37.411Z,1.39
2023-02-28T06:30:04.439Z,1.28
2023-02-28T06:32:30.849Z,1.69
2023-02-28T06:34:58.965Z,1.28
2023-02-28T06:37:28.338Z,1.37
2023-02-28T06:39:56.787Z,1.47
2023-02-28T06:42:29.847Z,1.57
2023-02-28T06:44:56.899Z,1.18
2023-02-28T06:47:23.651Z,1.88
2023-02-28T06:49:50.515Z,1.83
2023-02-28T06:52:17.351Z,1.48
2023-02-28T06:54:43.810Z,2.04
2023-02-28T06:57:10.263Z,1.59
2023-02-28T06:59:37.409Z,1.80
2023-02-28T07:02:03.883Z,1.74
2023-02-28T07:04:30.359Z,1.66
2023-02-28T07:06:57.904Z,1.52
2023-02-28T07:09:24.792Z,1.99
2023-02-28T07:11:51.190Z,1.97
2023-02-28T07:14:17.714Z,2.43
2023-02-28T07:16:46.360Z,2.00
2023-02-28T07:19:12.745Z,2.73
2023-02-28T07:21:39.173Z,2.82
2023-02-28T07:24:05.949Z,3.71
2023-02-28T07:26:35.008Z,2.77
2023-02-28T07:29:01.467Z,2.95
2023-02-28T07:31:28.363Z,3.19
2023-02-28T07:33:54.968Z,4.14
2023-02-28T07:36:21.367Z,3.47
2023-02-28T07:38:50.681Z,4.36
2023-02-28T07:41:19.415Z,3.54
2023-02-28T07:43:45.866Z,3.92
2023-02-28T07:46:16.093Z,3.55
2023-02-28T07:48:43.629Z,4.37
2023-02-28T07:51:10.707Z,4.92
2023-02-28T07:53:37.112Z,3.51
2023-02-28T07:56:04.362Z,2.95
2023-02-28T07:58:31.351Z,3.45
2023-02-28T08:00:58.586Z,3.51
2023-02-28T08:03:25.932Z,2.97
2023-02-28T08:05:53.574Z,4.73
2023-02-28T08:08:20.138Z,4.61
2023-02-28T08:10:46.562Z,4.83
2023-02-28T08:13:13.020Z,5.63
2023-02-28T08:15:41.171Z,5.82
2023-02-28T08:18:10.640Z,9.11
2023-02-28T08:20:37.064Z,6.88
2023-02-28T08:23:03.487Z,6.69
2023-02-28T08:25:30.175Z,5.11
2023-02-28T08:27:56.585Z,6.39
2023-02-28T08:30:23.044Z,6.44
2023-02-28T08:32:49.580Z,7.29
2023-02-28T08:35:16.140Z,10.11
2023-02-28T08:37:42.548Z,6.54
2023-02-28T08:40:10.052Z,8.24
2023-02-28T08:42:36.939Z,9.65
2023-02-28T08:45:03.933Z,7.98
2023-02-28T08:47:30.343Z,7.53
2023-02-28T08:49:56.793Z,11.25
2023-02-28T08:52:23.188Z,10.30
2023-02-28T08:54:50.335Z,11.15
2023-02-28T08:57:16.747Z,10.79
2023-02-28T08:59:43.164Z,11.76
2023-02-28T09:02:13.045Z,13.70
2023-02-28T09:04:39.514Z,12.99
2023-02-28T09:07:05.896Z,10.85
2023-02-28T09:09:32.386Z,10.68
2023-02-28T09:11:59.048Z,10.66
2023-02-28T09:14:25.562Z,11.19
2023-02-28T09:16:52.028Z,10.11
2023-02-28T09:19:18.474Z,11.55
2023-02-28T09:21:44.871Z,11.65
2023-02-28T09:24:14.369Z,10.73
2023-02-28T09:26:47.329Z,9.23
2023-02-28T09:29:22.243Z,10.39
2023-02-28T09:31:48.699Z,10.66
2023-02-28T09:34:15.257Z,11.31
2023-02-28T09:36:45.603Z,11.20
2023-02-28T09:39:15.408Z,11.71
2023-02-28T09:41:50.998Z,11.88
2023-02-28T09:44:32.666Z,11.81
2023-02-28T09:47:06.247Z,10.92
2023-02-28T09:49:40.285Z,10.21
2023-02-28T09:52:13.037Z,10.27
2023-02-28T09:54:40.059Z,10.45
2023-02-28T09:57:32.531Z,10.66
2023-02-28T10:00:11.135Z,10.67
2023-02-28T10:02:59.229Z,9.37
2023-02-28T10:05:29.583Z,9.78
2023-02-28T10:08:06.061Z,9.74
2023-02-28T10:10:46.080Z,9.32
2023-02-28T10:13:26.120Z,8.90
2023-02-28T10:15:59.709Z,8.72
2023-02-28T10:18:31.781Z,8.89
2023-02-28T10:20:59.781Z,9.32
2023-02-28T10:23:35.888Z,9.25
2023-02-28T10:26:12.455Z,9.33
2023-02-28T10:28:38.950Z,8.97
2023-02-28T10:31:05.772Z,9.02
2023-02-28T10:33:35.432Z,8.87
2023-02-28T10:36:04.625Z,8.26
2023-02-28T10:38:37.284Z,8.22
2023-02-28T10:41:12.501Z,8.00
2023-02-28T10:43:43.894Z,8.59
2023-02-28T10:46:10.320Z,8.24
2023-02-28T10:48:46.640Z,8.14
2023-02-28T10:51:14.963Z,7.65
2023-02-28T10:53:59.575Z,8.44
2023-02-28T10:56:27.792Z,7.87
2023-02-28T10:59:30.780Z,8.48
2023-02-28T11:01:58.150Z,7.30
2023-02-28T11:04:30.776Z,7.88
2023-02-28T11:06:58.837Z,7.70
2023-02-28T11:09:39.534Z,8.26
2023-02-28T11:12:09.935Z,8.13
2023-02-28T11:14:50.752Z,7.83
2023-02-28T11:17:23.705Z,7.73
2023-02-28T11:19:56.116Z,7.29
2023-02-28T11:22:29.568Z,6.96
2023-02-28T11:25:02.538Z,8.12
2023-02-28T11:27:31.694Z,7.71
2023-02-28T11:30:01.704Z,7.02
2023-02-28T11:32:31.504Z,7.54
2023-02-28T11:35:04.915Z,7.96
2023-02-28T11:37:33.675Z,8.29
2023-02-28T11:40:00.164Z,7.95
2023-02-28T11:42:40.190Z,8.34
2023-02-28T11:45:38.074Z,8.01
2023-02-28T11:48:21.552Z,7.90
2023-02-28T11:50:50.980Z,7.53
2023-02-28T11:53:27.418Z,7.78
2023-02-28T11:56:06.754Z,7.45
2023-02-28T11:59:02.318Z,6.95
2023-02-28T12:01:45.059Z,7.65
2023-02-28T12:04:30.600Z,7.54
2023-02-28T12:07:01.303Z,7.59
2023-02-28T12:09:40.197Z,6.20
2023-02-28T12:12:32.789Z,7.37
2023-02-28T12:15:24.681Z,7.65
2023-02-28T12:18:20.165Z,7.62
2023-02-28T12:21:02.676Z,8.00
2023-02-28T12:23:50.270Z,6.76
2023-02-28T12:26:34.671Z,6.93
2023-02-28T12:29:30.487Z,7.22
2023-02-28T12:32:05.013Z,7.68
2023-02-28T12:34:44.040Z,8.00
2023-02-28T12:37:18.432Z,7.55
2023-02-28T12:39:53.852Z,7.63
2023-02-28T12:42:34.788Z,7.46
2023-02-28T12:45:49.485Z,7.37
2023-02-28T12:48:22.717Z,7.32
2023-02-28T12:50:49.737Z,7.29
2023-02-28T12:53:27.592Z,7.82
2023-02-28T12:56:18.445Z,7.66
2023-02-28T12:58:56.402Z,7.70
2023-02-28T13:01:34.901Z,8.06
2023-02-28T13:04:37.782Z,7.83
2023-02-28T13:07:25.689Z,6.86
2023-02-28T13:09:58.436Z,7.62
2023-02-28T13:12:25.419Z,7.41
2023-02-28T13:15:02.551Z,7.62
2023-02-28T13:17:29.944Z,7.46
2023-02-28T13:19:56.376Z,7.18
2023-02-28T13:22:25.849Z,7.75
2023-02-28T13:24:57.421Z,7.64
2023-02-28T13:27:40.236Z,7.87
2023-02-28T13:30:44.219Z,7.15
2023-02-28T13:33:28.760Z,7.46
2023-02-28T13:36:12.009Z,7.11
2023-02-28T13:38:46.320Z,8.00
2023-02-28T13:41:31.502Z,8.29
2023-02-28T13:44:05.396Z,8.64
2023-02-28T13:46:37.270Z,8.12
2023-02-28T13:49:52.035Z,7.37
2023-02-28T13:52:23.236Z,7.93
2023-02-28T13:54:56.908Z,8.65
2023-02-28T13:57:38.599Z,7.98
2023-02-28T14:00:24.897Z,7.15
2023-02-28T14:03:11.885Z,8.43
2023-02-28T14:05:39.687Z,6.55
2023-02-28T14:08:18.568Z,7.67
2023-02-28T14:10:48.291Z,7.99
2023-02-28T14:13:26.875Z,7.57
2023-02-28T14:15:58.811Z,7.68
2023-02-28T14:18:41.378Z,7.47
2023-02-28T14:21:29.978Z,7.84
2023-02-28T14:24:10.641Z,7.82
2023-02-28T14:27:01.867Z,7.68
2023-02-28T14:29:40.964Z,7.59
2023-02-28T14:32:22.430Z,8.06
2023-02-28T14:37:38.611Z,7.31
2023-02-28T14:40:12.776Z,7.88
2023-02-28T14:42:42.618Z,7.92
2023-02-28T14:45:20.972Z,8.00
2023-02-28T14:47:48.565Z,7.87
2023-02-28T14:50:23.694Z,8.22
2023-02-28T14:52:54.839Z,8.16
2023-02-28T14:55:26.739Z,7.38
2023-02-28T14:57:54.900Z,8.42
2023-02-28T15:00:25.813Z,7.48
2023-02-28T15:02:53.820Z,7.58
2023-02-28T15:05:25.958Z,7.14
2023-02-28T15:08:21.017Z,8.01
2023-02-28T15:11:09.672Z,8.34
2023-02-28T15:13:42.190Z,7.84
2023-02-28T15:16:17.631Z,7.82
2023-02-28T15:18:50.234Z,7.93
2023-02-28T15:21:21.546Z,7.93
2023-02-28T15:23:54.000Z,8.61
2023-02-28T15:26:23.683Z,7.47
2023-02-28T15:28:59.785Z,7.32
2023-02-28T15:31:39.169Z,7.82
2023-02-28T15:34:24.659Z,7.82
2023-02-28T15:36:51.215Z,7.87
2023-02-28T15:39:24.511Z,8.34
2023-02-28T15:41:51.111Z,8.52
2023-02-28T15:44:25.346Z,7.70
2023-02-28T15:46:59.742Z,8.22
2023-02-28T15:49:26.487Z,8.70
2023-02-28T15:51:56.825Z,8.16
2023-02-28T15:54:34.493Z,8.24
2023-02-28T15:57:10.028Z,8.47
2023-02-28T15:59:37.928Z,8.67
2023-02-28T16:02:10.788Z,8.63
2023-02-28T16:04:38.040Z,8.39
2023-02-28T16:07:06.525Z,7.92
2023-02-28T16:09:35.161Z,8.13
2023-02-28T16:12:03.478Z,8.31
2023-02-28T16:14:36.362Z,7.13
2023-02-28T16:17:05.537Z,7.71
2023-02-28T16:19:33.798Z,7.92
2023-02-28T16:22:01.276Z,6.88
2023-02-28T16:24:27.844Z,7.49
2023-02-28T16:26:57.803Z,8.10
2023-02-28T16:29:27.920Z,7.37
2023-02-28T16:31:54.846Z,7.66
2023-02-28T16:34:21.950Z,6.57
2023-02-28T16:36:50.126Z,6.60
2023-02-28T16:39:16.781Z,6.45
2023-02-28T16:41:45.493Z,6.52
2023-02-28T16:44:21.463Z,6.21
2023-02-28T16:46:48.190Z,6.50
2023-02-28T16:49:15.086Z,6.28
2023-02-28T16:51:41.490Z,6.43
2023-02-28T16:54:07.893Z,6.43
2023-02-28T16:56:35.165Z,6.90
2023-02-28T16:59:02.749Z,6.17
2023-02-28T17:01:30.182Z,6.55
2023-02-28T17:03:56.825Z,6.43
2023-02-28T17:06:26.669Z,6.04
2023-02-28T17:08:53.188Z,6.43
2023-02-28T17:11:19.837Z,6.84
2023-02-28T17:13:47.083Z,7.46
2023-02-28T17:16:29.281Z,7.17
2023-02-28T17:18:59.348Z,7.80
2023-02-28T17:21:25.786Z,7.51
2023-02-28T17:23:52.292Z,7.86
2023-02-28T17:26:23.209Z,7.82
2023-02-28T17:28:50.000Z,7.87
2023-02-28T17:31:16.480Z,7.82
2023-02-28T17:33:43.056Z,7.71
2023-02-28T17:36:22.820Z,7.52
2023-02-28T17:38:49.917Z,6.33
2023-02-28T17:41:16.400Z,6.33
2023-02-28T17:43:42.923Z,5.50
2023-02-28T17:46:21.723Z,5.86
2023-02-28T17:48:49.643Z,6.33
2023-02-28T17:51:17.645Z,6.32
2023-02-28T17:53:44.330Z,6.62
2023-02-28T17:56:19.806Z,7.10
2023-02-28T17:58:46.270Z,7.21
2023-02-28T18:01:13.074Z,7.08
2023-02-28T18:03:40.871Z,7.15
2023-02-28T18:06:10.978Z,6.93
2023-02-28T18:08:37.562Z,7.09
2023-02-28T18:11:04.085Z,6.62
2023-02-28T18:13:30.538Z,6.82
2023-02-28T18:15:56.974Z,5.25
2023-02-28T18:18:23.506Z,5.67
2023-02-28T18:20:50.804Z,6.43
2023-02-28T18:23:18.365Z,5.89
2023-02-28T18:25:45.049Z,4.93
2023-02-28T18:28:11.504Z,4.72
2023-02-28T18:30:38.256Z,4.83
2023-02-28T18:33:04.912Z,5.04
2023-02-28T18:35:35.163Z,4.63
2023-02-28T18:38:06.078Z,4.66
2023-02-28T18:40:32.895Z,5.12
2023-02-28T18:42:59.844Z,4.52
2023-02-28T18:45:26.935Z,5.01
2023-02-28T18:47:53.434Z,5.64
2023-02-28T18:50:20.077Z,5.19
2023-02-28T18:52:46.503Z,4.66
2023-02-28T18:55:18.502Z,4.43
2023-02-28T18:57:48.282Z,4.79
2023-02-28T19:00:18.139Z,4.39
2023-02-28T19:02:44.552Z,4.37
2023-02-28T19:05:12.186Z,4.39
2023-02-28T19:07:38.716Z,4.50
2023-02-28T19:10:05.611Z,4.58
2023-02-28T19:12:36.473Z,4.41
2023-02-28T19:15:07.070Z,4.36
2023-02-28T19:17:34.700Z,4.57
2023-02-28T19:20:01.128Z,5.17
2023-02-28T19:22:27.709Z,4.18
2023-02-28T19:24:54.204Z,4.20
2023-02-28T19:27:20.639Z,4.78
2023-02-28T19:29:51.992Z,4.05
2023-02-28T19:32:20.444Z,4.04
2023-02-28T19:34:47.958Z,4.05
2023-02-28T19:37:14.775Z,3.81
2023-02-28T19:39:44.183Z,3.92
2023-02-28T19:42:13.261Z,3.57
2023-02-28T19:44:40.004Z,3.79
2023-02-28T19:47:06.655Z,3.47
2023-02-28T19:49:33.106Z,3.71
2023-02-28T19:52:00.400Z,3.29
2023-02-28T19:54:27.344Z,3.42
2023-02-28T19:56:54.611Z,3.42
2023-02-28T19:59:26.040Z,3.64
2023-02-28T20:01:57.538Z,3.07
2023-02-28T20:04:25.572Z,3.08
2023-02-28T20:06:52.392Z,2.91
2023-02-28T20:09:19.343Z,3.05
2023-02-28T20:11:45.874Z,3.24
2023-02-28T20:14:13.861Z,2.84
2023-02-28T20:16:41.563Z,2.91
2023-02-28T20:19:08.208Z,2.93
2023-02-28T20:21:34.674Z,2.82
2023-02-28T20:24:01.145Z,2.78
2023-02-28T20:26:27.914Z,2.74
2023-02-28T20:28:54.894Z,2.69
2023-02-28T20:31:24.430Z,2.79
2023-02-28T20:33:51.932Z,2.91
2023-02-28T20:36:21.210Z,2.99
2023-02-28T20:38:47.716Z,3.16
2023-02-28T20:41:14.619Z,3.30
2023-02-28T20:43:42.099Z,3.14
2023-02-28T20:46:09.297Z,3.89
2023-02-28T20:48:36.538Z,4.61
2023-02-28T20:51:05.118Z,4.74
2023-02-28T20:53:33.780Z,4.71
2023-02-28T20:56:04.655Z,4.72
2023-02-28T20:58:35.573Z,4.68
2023-02-28T21:01:16.041Z,4.28
2023-02-28T21:04:05.932Z,4.53
2023-02-28T21:06:36.812Z,4.28
2023-02-28T21:09:08.301Z,3.27
2023-02-28T21:11:37.054Z,4.15
2023-02-28T21:14:09.657Z,3.99
2023-02-28T21:16:37.856Z,4.24
2023-02-28T21:19:05.035Z,4.29
2023-02-28T21:21:35.240Z,4.46
2023-02-28T21:24:02.057Z,4.34
2023-02-28T21:26:29.252Z,4.33
2023-02-28T21:28:58.382Z,4.14
2023-02-28T21:31:26.499Z,3.92
2023-02-28T21:33:54.846Z,3.46
2023-02-28T21:36:24.667Z,3.08
2023-02-28T21:39:03.822Z,2.54
2023-02-28T21:41:30.387Z,2.77
2023-02-28T21:43:57.143Z,3.53
2023-02-28T21:46:26.543Z,3.55
2023-02-28T21:48:53.456Z,3.29
2023-02-28T21:51:23.025Z,3.75
2023-02-28T21:53:49.711Z,3.40
2023-02-28T21:56:20.436Z,3.59
2023-02-28T21:58:47.797Z,2.98
2023-02-28T22:01:20.380Z,3.78
2023-02-28T22:03:48.608Z,3.90
2023-02-28T22:06:17.609Z,3.86
2023-02-28T22:08:46.722Z,3.50
2023-02-28T22:11:14.771Z,3.82
2023-02-28T22:13:41.504Z,3.80
2023-02-28T22:16:11.815Z,3.55
2023-02-28T22:18:39.151Z,3.72
2023-02-28T22:21:06.781Z,3.44
2023-02-28T22:23:34.782Z,3.52
2023-02-28T22:26:02.678Z,3.78
2023-02-28T22:28:30.489Z,3.66
2023-02-28T22:30:58.431Z,3.65
2023-02-28T22:33:26.638Z,3.63
2023-02-28T22:35:53.648Z,3.55
2023-02-28T22:38:20.181Z,3.53
2023-02-28T22:40:46.602Z,3.49
2023-02-28T22:43:13.081Z,3.52
2023-02-28T22:45:41.101Z,3.50
2023-02-28T22:48:09.037Z,3.53
2023-02-28T22:50:35.603Z,3.43
2023-02-28T22:53:02.060Z,3.42
2023-02-28T22:55:28.564Z,3.42
2023-02-28T22:57:55.032Z,3.36
2023-02-28T23:00:21.914Z,3.36
2023-02-28T23:02:48.368Z,3.30
2023-02-28T23:05:15.336Z,3.27
2023-02-28T23:07:42.872Z,3.24
2023-02-28T23:10:17.683Z,3.22
2023-02-28T23:12:50.370Z,3.15
2023-02-28T23:15:21.628Z,3.18
2023-02-28T23:17:49.421Z,3.14
2023-02-28T23:20:19.660Z,3.04
2023-02-28T23:22:46.469Z,3.09
2023-02-28T23:25:13.987Z,3.04
2023-02-28T23:27:40.597Z,2.65
2023-02-28T23:30:07.991Z,2.95
2023-02-28T23:32:35.383Z,3.06
2023-02-28T23:35:02.565Z,2.92
2023-02-28T23:37:29.112Z,3.08
2023-02-28T23:39:55.990Z,3.00
2023-02-28T23:42:22.584Z,2.91
2023-02-28T23:44:48.999Z,2.96
2023-02-28T23:47:15.656Z,2.99
2023-02-28T23:49:42.275Z,2.88
2023-02-28T23:52:08.693Z,2.84
2023-02-28T23:54:35.233Z,2.86
2023-02-28T23:57:01.659Z,2.88
2023-02-28T23:59:28.570Z,2.83
